Time;durP1;ratioP1;P1;durP2;ratioP2;P2;SDS_P1;SDS_P2;PMS_P1;PMS_P2;Temp;Humidity;BMP_temperature;BMP_pressure;BME280_temperature;BME280_humidity;BME280_pressure;Samples;Min_cycle;Max_cycle;Signal;HPM_P1;HPM_P2
2022/12/28 00:00:38;;;;;;;9.17;7.30;;;9.80;99.90;;;9.89;63.76;95958.25;5004074;28;20505;-57
2022/12/28 00:03:06;;;;;;;9.83;7.20;;;9.80;99.80;;;9.91;63.79;95961.59;4997126;28;20469;-58
2022/12/28 00:05:33;;;;;;;10.67;7.70;;;9.80;99.60;;;9.92;64.22;95960.66;5002157;28;20746;-56
2022/12/28 00:08:00;;;;;;;10.93;7.63;;;9.80;99.90;;;9.94;64.05;95957.94;5001629;28;20903;-58
2022/12/28 00:10:27;;;;;;;9.97;8.10;;;9.80;99.90;;;9.94;63.96;95958.75;5001242;28;20457;-52
2022/12/28 00:12:55;;;;;;;9.47;6.97;;;9.90;99.80;;;9.96;64.01;95962.13;4996694;28;20632;-57
2022/12/28 00:15:22;;;;;;;11.10;7.70;;;9.90;99.90;;;9.97;63.93;95963.78;4997956;28;20501;-57
2022/12/28 00:17:50;;;;;;;7.33;6.63;;;9.90;99.90;;;10.00;63.67;95966.22;4996239;28;20477;-58
2022/12/28 00:20:18;;;;;;;9.33;7.00;;;9.90;99.90;;;10.02;63.87;95969.59;4996635;28;20450;-58
2022/12/28 00:22:45;;;;;;;13.60;7.77;;;9.90;99.90;;;10.04;63.66;95975.56;4998664;28;20779;-57
2022/12/28 00:25:12;;;;;;;8.83;7.30;;;10.00;99.30;;;10.07;64.07;95979.78;4998894;28;20449;-55
2022/12/28 00:27:39;;;;;;;20.93;7.00;;;9.90;99.70;;;10.09;63.79;95977.03;4998156;28;20544;-57
2022/12/28 00:30:08;;;;;;;9.33;7.17;;;10.00;99.30;;;10.05;63.76;95977.25;4997850;28;20535;-58
2022/12/28 00:32:36;;;;;;;8.80;6.63;;;10.00;99.30;;;10.09;63.83;95990.19;4998710;28;20528;-56
2022/12/28 00:35:06;;;;;;;7.30;6.60;;;10.00;99.30;;;10.10;63.80;95983.97;4996871;28;20571;-59
2022/12/28 00:37:33;;;;;;;8.50;7.70;;;10.00;99.40;;;10.10;63.93;95994.47;4996560;28;20469;-56
2022/12/28 00:40:00;;;;;;;9.93;7.30;;;10.00;99.30;;;10.10;63.78;95999.72;4996133;28;20454;-55
2022/12/28 00:42:27;;;;;;;10.47;7.83;;;10.00;99.30;;;10.09;63.88;95996.28;4998502;28;20871;-57
2022/12/28 00:44:55;;;;;;;10.23;6.97;;;10.00;99.40;;;10.09;63.65;96000.69;4999614;28;20488;-56
2022/12/28 00:47:22;;;;;;;9.77;7.67;;;10.00;99.30;;;10.04;63.94;95999.22;4996096;28;20478;-56
2022/12/28 00:49:49;;;;;;;9.80;8.20;;;10.00;99.40;;;10.05;64.48;95998.28;4998461;28;20453;-56
2022/12/28 00:52:18;;;;;;;10.23;8.30;;;10.00;99.70;;;10.03;64.60;96009.84;4997921;28;20593;-58
2022/12/28 00:54:45;;;;;;;12.40;8.50;;;9.90;99.90;;;10.01;64.22;95999.44;4999701;28;20493;-53
2022/12/28 00:57:12;;;;;;;11.07;9.13;;;9.90;99.90;;;10.02;64.75;95997.63;4996185;28;20466;-57
2022/12/28 00:59:40;;;;;;;11.10;8.97;;;9.90;99.90;;;10.00;64.20;96005.63;4997921;28;20465;-58
2022/12/28 01:02:07;;;;;;;12.60;9.60;;;9.90;99.90;;;9.99;64.37;95998.72;4996103;28;20823;-55
2022/12/28 01:04:34;;;;;;;13.80;10.30;;;9.90;99.90;;;9.99;64.70;96001.34;4997376;28;20917;-54
2022/12/28 01:07:01;;;;;;;12.23;10.40;;;9.90;99.90;;;9.97;64.72;96000.59;4995995;28;20478;-52
2022/12/28 01:09:30;;;;;;;14.87;10.70;;;9.90;99.90;;;9.98;64.51;96001.44;4999435;28;20480;-55
2022/12/28 01:11:57;;;;;;;15.33;11.27;;;9.90;99.90;;;9.97;64.83;95995.34;4996670;28;20545;-53
2022/12/28 01:14:26;;;;;;;13.13;10.07;;;9.90;99.90;;;9.97;64.46;95989.25;5000097;28;20490;-53
2022/12/28 01:16:53;;;;;;;15.90;12.37;;;9.90;99.90;;;9.95;64.61;95997.25;5000630;28;21063;-58
2022/12/28 01:19:22;;;;;;;13.50;10.93;;;9.90;99.90;;;9.92;64.81;95994.81;4997920;28;20451;-60
2022/12/28 01:21:50;;;;;;;15.03;10.47;;;9.90;99.90;;;9.90;64.92;95994.09;4998884;28;20461;-54
2022/12/28 01:24:17;;;;;;;15.70;11.87;;;9.80;99.90;;;9.87;64.62;95994.31;4996922;28;20946;-59
2022/12/28 01:26:46;;;;;;;17.17;12.20;;;9.80;99.90;;;9.85;64.65;95985.69;4999264;28;20449;-57
2022/12/28 01:29:17;;;;;;;18.67;12.43;;;9.80;99.90;;;9.82;64.77;95993.78;4996905;28;20453;-57
2022/12/28 01:31:44;;;;;;;15.40;11.80;;;9.70;99.90;;;9.79;64.49;95994.00;4998031;28;20832;-54
2022/12/28 01:34:11;;;;;;;16.10;11.53;;;9.70;99.90;;;9.78;64.61;95984.47;4993824;28;20464;-55
2022/12/28 01:36:38;;;;;;;16.17;12.20;;;9.70;99.90;;;9.77;64.50;95986.22;4994843;28;20918;-57
2022/12/28 01:39:06;;;;;;;17.77;12.13;;;9.70;99.90;;;9.75;64.76;95987.28;4996527;28;20814;-58
2022/12/28 01:41:37;;;;;;;18.80;13.93;;;9.70;99.90;;;9.72;64.78;95985.72;4996323;28;20453;-57
2022/12/28 01:44:44;;;;;;;15.47;12.90;;;9.70;99.90;;;9.69;64.53;95985.94;5000392;28;20961;-58
2022/12/28 01:47:18;;;;;;;18.47;12.73;;;9.60;99.90;;;9.67;64.20;95988.66;4996127;28;20485;-54
2022/12/28 01:49:59;;;;;;;23.27;15.53;;;9.60;99.90;;;9.64;64.57;95980.16;4993528;28;20510;-54
2022/12/28 01:52:30;;;;;;;23.83;14.43;;;9.60;99.90;;;9.60;64.33;95979.50;5004438;28;20856;-56
2022/12/28 01:54:59;;;;;;;23.60;15.03;;;9.60;99.90;;;9.57;64.38;95974.47;4999639;28;20489;-57
2022/12/28 01:57:28;;;;;;;18.93;13.40;;;9.50;99.90;;;9.55;64.47;95979.00;4998421;28;20482;-55
2022/12/28 02:00:00;;;;;;;21.33;14.40;;;9.50;99.90;;;9.52;64.45;95980.03;5002565;28;20481;-58
2022/12/28 02:02:27;;;;;;;24.53;15.83;;;9.50;99.90;;;9.51;64.31;95977.53;4999442;28;20473;-55
2022/12/28 02:04:54;;;;;;;19.03;14.10;;;9.50;99.90;;;9.49;64.28;95979.44;5000456;28;20519;-56
2022/12/28 02:07:29;;;;;;;19.43;13.70;;;9.40;99.90;;;9.47;64.59;95973.44;5005492;28;20958;-57
2022/12/28 02:09:56;;;;;;;18.30;14.27;;;9.40;99.90;;;9.45;64.42;95964.81;4997901;28;20479;-54
2022/12/28 02:12:24;;;;;;;17.13;13.50;;;9.40;99.90;;;9.45;63.79;95967.44;4998036;28;20481;-56
2022/12/28 02:14:51;;;;;;;19.10;14.37;;;9.40;99.90;;;9.44;64.11;95971.03;5002469;28;20547;-56
2022/12/28 02:17:20;;;;;;;21.93;15.03;;;9.40;99.90;;;9.43;64.16;95964.09;5000483;28;20543;-57
2022/12/28 02:19:48;;;;;;;26.40;17.00;;;9.40;99.90;;;9.42;64.09;95970.28;4999982;28;20468;-59
2022/12/28 02:22:48;;;;;;;23.30;15.70;;;9.40;99.90;;;9.40;64.12;95965.13;5000806;28;20493;-55
2022/12/28 02:25:48;;;;;;;17.90;14.17;;;9.30;99.90;;;9.39;64.26;95960.84;4997213;28;20469;-58
2022/12/28 02:28:41;;;;;;;20.80;14.50;;;9.30;99.90;;;9.37;63.62;95948.75;5001791;28;20893;-59
2022/12/28 02:31:11;;;;;;;18.33;14.17;;;9.30;99.70;;;9.37;63.69;95951.38;5001236;28;20458;-57
2022/12/28 02:33:44;;;;;;;18.67;14.87;;;9.30;99.60;;;9.35;63.58;95948.88;5002222;28;20481;-57
2022/12/28 02:36:16;;;;;;;21.60;14.47;;;9.30;99.60;;;9.33;63.42;95946.34;5000294;28;20604;-54
2022/12/28 02:38:45;;;;;;;22.23;15.70;;;9.30;99.50;;;9.29;63.47;95947.50;5000934;28;21022;-53
2022/12/28 02:41:15;;;;;;;19.60;13.93;;;9.30;99.50;;;9.29;63.27;95954.53;5000553;28;20531;-57
2022/12/28 02:43:44;;;;;;;18.43;13.57;;;9.30;99.40;;;9.26;63.42;95955.56;5000833;28;20551;-58
2022/12/28 02:52:01;;;;;;;21.47;12.33;;;9.20;99.10;;;9.21;62.70;95944.56;5000593;28;20501;-56
2022/12/28 02:57:55;;;;;;;15.23;10.70;;;9.10;98.70;;;9.20;61.73;95932.41;4983202;28;20472;-58
2022/12/28 03:00:25;;;;;;;17.67;10.63;;;9.20;98.40;;;9.19;61.93;95930.72;5000836;28;20453;-58
2022/12/28 03:03:12;;;;;;;13.27;9.30;;;9.10;98.30;;;9.18;61.85;95931.66;4998673;28;21068;-55
2022/12/28 03:08:43;;;;;;;11.93;8.40;;;9.10;98.00;;;9.18;61.70;95934.28;4997591;28;20605;-54
2022/12/28 03:11:12;;;;;;;14.43;8.90;;;9.10;97.90;;;9.18;61.58;95929.03;4999891;28;20446;-57
2022/12/28 03:13:42;;;;;;;9.70;8.70;;;9.10;97.90;;;9.19;61.30;95940.38;4997268;28;20479;-54
2022/12/28 03:16:15;;;;;;;12.13;8.30;;;9.10;97.70;;;9.16;60.90;95936.16;5002070;28;20567;-56
2022/12/28 03:32:29;;;;;;;8.03;6.40;;;9.00;97.20;;;9.04;60.56;95950.13;5001605;28;20480;-57
2022/12/28 03:34:57;;;;;;;8.33;6.27;;;9.00;97.10;;;9.03;60.31;95956.31;4998172;28;21363;-58
2022/12/28 03:37:27;;;;;;;7.03;6.33;;;9.00;96.80;;;9.00;59.86;95956.50;4998547;28;20482;-54
2022/12/28 03:40:00;;;;;;;10.00;7.83;;;9.00;96.70;;;8.99;59.95;95957.47;4998602;28;21032;-55
2022/12/28 03:45:19;;;;;;;10.40;6.60;;;8.90;96.50;;;8.92;60.23;95957.88;5002136;28;20480;-54
2022/12/28 03:47:48;;;;;;;8.90;7.07;;;8.90;96.40;;;8.89;59.85;95951.97;4996794;28;20487;-58
2022/12/28 03:50:16;;;;;;;8.90;6.57;;;8.90;96.40;;;8.86;59.83;95945.19;5000129;28;20504;-55
2022/12/28 03:52:43;;;;;;;6.77;6.07;;;8.80;96.20;;;8.83;59.90;95939.28;4995996;28;20490;-57
2022/12/28 03:55:11;;;;;;;11.83;5.77;;;8.80;96.30;;;8.81;59.69;95936.75;4998112;28;20493;-57
2022/12/28 03:57:38;;;;;;;5.47;4.93;;;8.80;96.30;;;8.78;59.47;95921.22;5000351;28;20490;-57
2022/12/28 04:00:09;;;;;;;7.60;5.03;;;8.80;96.10;;;8.77;59.61;95914.31;5000533;28;20481;-56
2022/12/28 04:02:36;;;;;;;6.33;5.13;;;8.70;95.90;;;8.75;59.66;95921.44;4998958;28;20549;-55
2022/12/28 04:05:06;;;;;;;11.80;5.50;;;8.70;96.00;;;8.75;59.73;95932.78;5003097;28;20462;-56
2022/12/28 04:07:34;;;;;;;5.33;4.53;;;8.70;95.90;;;8.76;59.03;95933.59;4998197;28;20488;-55
2022/12/28 04:10:01;;;;;;;7.33;5.50;;;8.70;95.80;;;8.75;59.37;95926.66;4997978;28;20469;-56
2022/12/28 04:12:28;;;;;;;16.13;9.33;;;8.70;95.70;;;8.76;58.84;95944.94;4998463;28;20482;-58
2022/12/28 04:14:55;;;;;;;6.57;5.43;;;8.70;95.50;;;8.75;59.17;95943.28;4997950;28;20537;-55
2022/12/28 04:17:22;;;;;;;7.90;5.57;;;8.70;95.30;;;8.76;58.86;95942.31;4997633;28;20600;-56
2022/12/28 04:19:50;;;;;;;4.60;4.20;;;8.70;95.20;;;8.77;58.65;95961.53;4997175;28;20450;-58
2022/12/28 04:22:18;;;;;;;6.43;5.20;;;8.70;94.90;;;8.75;58.66;95968.63;4995734;28;20914;-55
2022/12/28 04:24:46;;;;;;;5.53;5.00;;;8.70;95.00;;;8.75;58.08;95968.63;4997619;28;20962;-57
2022/12/28 04:27:13;;;;;;;6.57;5.17;;;8.70;94.80;;;8.74;58.18;95966.97;4997353;28;21084;-57
2022/12/28 04:29:40;;;;;;;6.77;5.53;;;8.70;94.70;;;8.72;57.35;95968.84;4996856;28;21201;-56
2022/12/28 04:32:07;;;;;;;4.30;3.90;;;8.70;94.60;;;8.73;58.37;95973.16;5000307;28;20933;-57
2022/12/28 04:34:35;;;;;;;4.40;4.03;;;8.70;94.70;;;8.74;58.11;95966.97;4996703;28;20454;-56
2022/12/28 04:37:02;;;;;;;4.63;4.20;;;8.70;94.40;;;8.76;58.11;95971.16;4996674;28;20505;-57
2022/12/28 04:39:30;;;;;;;5.00;4.43;;;8.70;94.40;;;8.78;57.37;95976.31;5000984;28;20462;-57
2022/12/28 04:41:58;;;;;;;9.53;4.43;;;8.70;94.40;;;8.80;57.40;95977.06;4998059;28;20474;-57
2022/12/28 04:44:25;;;;;;;5.23;4.40;;;8.80;94.50;;;8.78;57.94;95976.31;4999709;28;20458;-54
2022/12/28 04:46:52;;;;;;;6.13;4.53;;;8.80;94.40;;;8.78;57.89;95978.94;4999654;28;20473;-56
2022/12/28 04:49:19;;;;;;;7.17;5.43;;;8.80;94.20;;;8.79;57.10;95980.63;5000125;28;20464;-58
2022/12/28 04:51:47;;;;;;;6.27;5.43;;;8.80;94.10;;;8.79;57.38;95984.06;5004717;28;20463;-60
2022/12/28 04:54:14;;;;;;;7.50;5.33;;;8.80;94.20;;;8.81;57.52;95978.72;4999627;28;20531;-57
2022/12/28 04:56:43;;;;;;;6.40;5.80;;;8.80;94.20;;;8.81;57.24;95978.72;4997189;28;20502;-56
2022/12/28 04:59:10;;;;;;;6.83;5.43;;;8.80;94.10;;;8.81;57.79;95970.03;5000515;28;20469;-57
2022/12/28 05:01:37;;;;;;;5.23;4.73;;;8.80;94.10;;;8.81;57.20;95970.03;5001545;28;20468;-57
2022/12/28 05:04:05;;;;;;;5.60;4.90;;;8.80;94.10;;;8.81;57.72;95970.84;4994479;28;20453;-57
2022/12/28 05:06:33;;;;;;;6.40;5.67;;;8.80;94.10;;;8.82;57.50;95961.22;5002831;28;20446;-55
2022/12/28 05:09:01;;;;;;;5.07;4.57;;;8.80;94.10;;;8.84;57.71;95964.56;4997911;28;20446;-57
2022/12/28 05:11:29;;;;;;;4.63;4.03;;;8.80;94.00;;;8.87;57.16;95969.63;4998277;28;20786;-55
2022/12/28 05:13:57;;;;;;;10.33;4.50;;;8.80;93.80;;;8.88;57.06;95969.53;4994699;28;20481;-58
2022/12/28 05:16:27;;;;;;;5.17;4.27;;;8.90;93.80;;;8.88;56.77;95969.53;4994606;28;20494;-55
2022/12/28 05:18:55;;;;;;;5.67;4.50;;;8.90;93.60;;;8.89;56.97;95973.84;4996764;28;20965;-55
2022/12/28 05:21:24;;;;;;;5.07;3.63;;;8.90;93.50;;;8.92;56.67;95975.41;4997488;28;20919;-55
2022/12/28 05:23:51;;;;;;;4.03;3.73;;;8.90;93.30;;;8.91;56.62;95979.81;4995445;28;20470;-58
2022/12/28 05:26:20;;;;;;;4.33;3.80;;;8.90;93.20;;;8.93;56.17;95983.16;4997340;28;20454;-57
2022/12/28 05:28:47;;;;;;;4.13;3.00;;;8.90;92.70;;;8.93;55.97;95980.53;4995239;28;20461;-56
2022/12/28 05:31:17;;;;;;;7.50;5.27;;;8.90;92.70;;;8.92;56.19;95992.00;4996084;28;20465;-57
2022/12/28 05:33:46;;;;;;;4.73;4.30;;;8.90;92.70;;;8.92;55.75;95986.75;4996472;28;20492;-58
2022/12/28 05:36:14;;;;;;;8.17;5.27;;;8.90;92.70;;;8.90;55.92;95983.38;5000497;28;21121;-58
2022/12/28 05:38:41;;;;;;;4.80;4.30;;;8.90;92.70;;;8.90;56.36;95986.00;4996505;28;20537;-55
2022/12/28 05:41:11;;;;;;;5.10;4.50;;;8.80;92.70;;;8.91;56.69;95994.72;5000009;28;20466;-53
2022/12/28 05:43:38;;;;;;;5.37;4.87;;;8.80;92.70;;;8.91;56.34;95992.94;4998121;28;21015;-57
2022/12/28 05:46:08;;;;;;;6.80;4.93;;;8.90;92.90;;;8.91;56.45;96000.81;4998833;28;20473;-58
2022/12/28 05:48:38;;;;;;;6.33;4.87;;;8.90;92.90;;;8.92;56.33;95989.38;4995130;28;20459;-57
2022/12/28 05:51:06;;;;;;;7.40;4.90;;;8.90;92.90;;;8.92;56.26;95997.25;4997445;28;20462;-56
2022/12/28 05:53:34;;;;;;;10.13;4.40;;;8.90;92.90;;;8.93;56.51;95996.28;4996270;28;20485;-56
2022/12/28 05:56:03;;;;;;;7.50;4.80;;;8.90;92.90;;;8.94;56.25;96002.38;4997748;28;20513;-56
2022/12/28 05:58:30;;;;;;;5.73;4.73;;;8.90;92.90;;;8.93;56.53;95998.91;4997642;28;20480;-53
2022/12/28 06:01:05;;;;;;;6.53;5.50;;;8.90;92.90;;;8.93;56.23;95996.28;4996084;28;20480;-57
2022/12/28 06:03:32;;;;;;;7.77;5.27;;;8.90;92.90;;;8.93;56.59;95998.91;4997913;28;20919;-56
2022/12/28 06:06:06;;;;;;;5.30;4.37;;;8.90;92.90;;;8.91;56.62;96003.41;5000491;28;20453;-55
2022/12/28 06:08:33;;;;;;;5.67;4.40;;;8.90;92.90;;;8.90;56.20;96014.03;4999490;28;20505;-57
2022/12/28 06:11:01;;;;;;;6.90;4.90;;;8.90;92.90;;;8.88;56.25;96027.25;4997159;28;20459;-57
2022/12/28 06:13:29;;;;;;;6.20;4.80;;;8.90;93.00;;;8.86;56.84;96023.88;4996501;28;20532;-58
2022/12/28 06:15:56;;;;;;;4.27;3.97;;;8.80;93.00;;;8.84;56.65;96015.25;4998627;28;20493;-57
2022/12/28 06:18:24;;;;;;;6.07;4.83;;;8.80;93.00;;;8.81;56.54;96017.25;4998529;28;20636;-56
2022/12/28 06:20:51;;;;;;;7.80;5.13;;;8.80;93.40;;;8.79;56.19;96014.72;4993600;28;20486;-57
2022/12/28 06:23:19;;;;;;;4.70;4.20;;;8.80;93.10;;;8.80;56.91;96008.53;4998037;28;20489;-58
2022/12/28 06:25:47;;;;;;;5.77;4.67;;;8.80;93.10;;;8.80;56.25;96011.16;4998397;28;20463;-55
2022/12/28 06:28:14;;;;;;;6.13;4.90;;;8.70;93.10;;;8.81;56.75;96017.25;4999834;28;20498;-55
2022/12/28 06:30:41;;;;;;;7.50;5.20;;;8.80;93.10;;;8.81;56.55;96009.38;4993284;28;20516;-57
2022/12/28 06:33:08;;;;;;;5.57;5.10;;;8.80;93.20;;;8.82;56.67;96011.91;4997015;28;20866;-55
2022/12/28 06:35:40;;;;;;;6.37;4.90;;;8.80;93.10;;;8.86;57.14;96029.13;4998180;28;20461;-55
2022/12/28 06:38:07;;;;;;;7.10;4.30;;;8.80;93.10;;;8.87;56.24;96041.28;4998646;28;20547;-58
2022/12/28 06:40:36;;;;;;;5.67;5.03;;;8.80;93.00;;;8.88;56.26;96035.09;4999034;28;20453;-56
2022/12/28 06:43:03;;;;;;;6.63;5.23;;;8.80;92.80;;;8.88;56.08;96027.25;5003006;28;21039;-58
2022/12/28 06:45:30;;;;;;;5.30;4.80;;;8.90;92.70;;;8.88;56.14;96024.63;5002694;28;20564;-57
2022/12/28 06:47:57;;;;;;;5.60;5.10;;;8.80;92.70;;;8.88;55.58;96029.84;4995532;28;20478;-58
2022/12/28 06:50:25;;;;;;;4.57;4.17;;;8.90;92.50;;;8.90;56.24;96025.34;4999656;28;20840;-58
2022/12/28 06:52:52;;;;;;;10.07;4.97;;;8.90;92.50;;;8.92;55.85;96020.00;4999390;28;20477;-56
2022/12/28 06:55:19;;;;;;;4.77;4.07;;;8.90;92.50;;;8.95;55.80;96025.03;4995304;28;20535;-59
2022/12/28 06:57:48;;;;;;;7.27;5.03;;;8.90;92.30;;;8.98;55.71;96024.84;4996912;28;20500;-52
2022/12/28 07:00:16;;;;;;;7.63;5.30;;;8.90;92.10;;;8.99;55.42;96016.03;5006587;28;20453;-58
2022/12/28 07:02:43;;;;;;;4.60;4.20;;;9.00;91.90;;;8.99;55.22;96029.16;4996593;28;20515;-58
2022/12/28 07:05:10;;;;;;;6.73;4.70;;;9.00;91.70;;;8.99;55.12;96028.31;5002887;28;20973;-59
2022/12/28 07:07:38;;;;;;;8.40;5.10;;;9.00;91.90;;;9.00;55.39;96030.84;5000330;28;20572;-57
2022/12/28 07:10:06;;;;;;;10.73;5.00;;;9.00;91.90;;;9.04;55.51;96026.22;4999281;28;20458;-55
2022/12/28 07:12:33;;;;;;;11.17;4.90;;;9.00;92.10;;;9.07;55.82;96024.22;4997676;28;20481;-58
2022/12/28 07:15:02;;;;;;;18.57;6.13;;;9.00;92.00;;;9.13;55.27;96028.25;4999113;28;20946;-56
2022/12/28 07:17:29;;;;;;;5.57;4.73;;;9.10;92.00;;;9.13;54.77;96028.25;5001647;28;21239;-56
2022/12/28 07:19:56;;;;;;;5.47;4.83;;;9.10;91.50;;;9.14;55.12;96027.31;4999206;28;20923;-56
2022/12/28 07:22:24;;;;;;;6.03;4.80;;;9.10;91.60;;;9.18;55.12;96031.38;4998663;28;20474;-57
2022/12/28 07:24:51;;;;;;;5.77;5.17;;;9.10;91.60;;;9.23;54.53;96025.84;4998319;28;20931;-57
2022/12/28 07:27:18;;;;;;;4.97;4.33;;;9.20;91.30;;;9.26;54.34;96026.47;4999438;28;20478;-60
2022/12/28 07:29:45;;;;;;;6.23;5.20;;;9.20;91.00;;;9.33;54.40;96035.63;5000270;28;20450;-55
2022/12/28 07:32:14;;;;;;;6.30;5.57;;;9.20;91.10;;;9.42;54.73;96042.03;4997435;28;20906;-58
2022/12/28 07:34:41;;;;;;;11.80;5.13;;;9.30;91.10;;;9.52;54.61;96047.50;5000416;28;20877;-58
2022/12/28 07:37:09;;;;;;;10.80;5.60;;;9.40;91.10;;;9.62;53.93;96048.56;4995969;28;20493;-58
2022/12/28 07:39:36;;;;;;;6.93;5.33;;;9.50;90.70;;;9.71;53.87;96043.63;5002009;28;20496;-58
2022/12/28 07:42:05;;;;;;;12.83;5.10;;;9.60;90.60;;;9.80;53.14;96042.97;4997139;28;20592;-57
2022/12/28 07:44:33;;;;;;;6.43;5.07;;;9.70;90.10;;;9.87;53.11;96045.09;5002628;28;20468;-58
2022/12/28 07:47:00;;;;;;;6.00;4.80;;;9.80;89.80;;;9.91;53.44;96047.50;4996385;28;20529;-56
2022/12/28 07:49:28;;;;;;;5.90;4.90;;;9.80;90.00;;;9.93;53.40;96050.84;4998703;28;20477;-55
2022/12/28 07:51:56;;;;;;;7.93;6.93;;;9.80;90.10;;;9.94;53.67;96053.38;5000884;28;20476;-56
2022/12/28 07:54:23;;;;;;;6.10;5.33;;;9.90;90.20;;;9.94;53.21;96052.53;5001869;28;20469;-57
2022/12/28 07:56:50;;;;;;;5.07;4.57;;;9.90;89.80;;;9.90;53.01;96046.66;4999935;28;20490;-57
2022/12/28 07:59:17;;;;;;;8.10;5.27;;;9.90;89.10;;;9.86;53.08;96048.66;4999260;28;20950;-58
2022/12/28 08:01:45;;;;;;;6.63;5.87;;;9.80;89.00;;;9.83;53.09;96046.22;5003214;28;20462;-55
2022/12/28 08:04:14;;;;;;;10.20;5.50;;;9.80;89.00;;;9.80;53.40;96045.63;4999467;28;20469;-58
2022/12/28 08:06:44;;;;;;;8.03;6.03;;;9.70;89.30;;;9.81;53.29;96052.56;5001569;28;20454;-58
2022/12/28 08:09:14;;;;;;;6.47;5.17;;;9.80;89.70;;;9.82;53.50;96043.72;4999721;28;20543;-58
2022/12/28 08:11:42;;;;;;;12.93;6.00;;;9.70;89.50;;;9.83;53.34;96048.84;4994141;28;20442;-63
2022/12/28 08:14:10;;;;;;;5.47;4.97;;;9.70;89.30;;;9.84;53.42;96047.91;5003003;28;20997;-58
2022/12/28 08:16:38;;;;;;;4.83;4.43;;;9.80;89.00;;;9.83;52.89;96051.47;4996395;28;20496;-54
2022/12/28 08:19:06;;;;;;;6.47;5.00;;;9.80;89.00;;;9.83;53.10;96061.16;4998070;28;20455;-55
2022/12/28 08:21:34;;;;;;;5.60;4.50;;;9.80;89.00;;;9.81;53.05;96055.19;5000123;28;20975;-57
2022/12/28 08:24:03;;;;;;;5.77;5.23;;;9.80;89.00;;;9.81;53.15;96060.44;4998263;28;21173;-57
2022/12/28 08:26:32;;;;;;;4.80;4.17;;;9.70;88.90;;;9.78;53.23;96053.59;4998348;28;20462;-53
2022/12/28 08:29:01;;;;;;;8.43;4.77;;;9.70;88.90;;;9.77;53.53;96056.34;4998125;28;20451;-56
2022/12/28 08:31:30;;;;;;;5.10;4.60;;;9.70;88.90;;;9.78;53.48;96052.78;4998835;28;20541;-54
2022/12/28 08:33:58;;;;;;;5.70;4.60;;;9.70;89.20;;;9.77;53.37;96056.34;4995262;28;20478;-55
2022/12/28 08:36:25;;;;;;;4.73;4.23;;;9.70;88.90;;;9.74;53.54;96065.25;5002098;28;20466;-58
2022/12/28 08:38:53;;;;;;;5.27;4.13;;;9.70;89.50;;;9.73;53.54;96062.72;4997209;28;20477;-58
2022/12/28 08:41:22;;;;;;;5.53;4.70;;;9.70;89.40;;;9.71;53.33;96060.22;4995391;28;20800;-56
2022/12/28 08:43:50;;;;;;;6.43;5.07;;;9.60;89.30;;;9.71;53.76;96057.59;5001437;28;20486;-55
2022/12/28 08:46:18;;;;;;;5.80;4.30;;;9.70;89.70;;;9.72;53.58;96056.66;5000417;28;20576;-59
2022/12/28 08:48:46;;;;;;;4.90;4.40;;;9.60;89.40;;;9.73;53.48;96055.72;5003152;28;20480;-58
2022/12/28 08:51:15;;;;;;;15.87;4.77;;;9.70;89.50;;;9.75;53.60;96050.34;5000750;28;20457;-57
2022/12/28 08:53:42;;;;;;;8.57;4.93;;;9.70;90.00;;;9.75;53.55;96048.56;4998258;28;21099;-58
2022/12/28 08:56:11;;;;;;;12.20;4.87;;;9.70;89.70;;;9.74;53.66;96046.03;4997724;28;20954;-57
2022/12/28 08:58:40;;;;;;;8.37;4.80;;;9.70;89.50;;;9.76;53.49;96049.38;4996222;28;20505;-58
2022/12/28 09:01:09;;;;;;;6.03;5.20;;;9.70;89.50;;;9.76;53.62;96054.63;4988415;28;22014;-54
2022/12/28 09:03:37;;;;;;;5.50;5.00;;;9.70;89.50;;;9.75;53.54;96045.09;4992688;28;20482;-57
2022/12/28 09:06:05;;;;;;;9.70;5.00;;;9.70;89.70;;;9.76;53.78;96033.63;5004746;28;20461;-53
2022/12/28 09:08:33;;;;;;;8.83;5.13;;;9.70;89.80;;;9.75;53.75;96034.59;5000144;28;20935;-58
2022/12/28 09:11:00;;;;;;;4.93;4.37;;;9.70;89.60;;;9.73;53.60;96031.22;5003012;28;20883;-54
2022/12/28 09:13:28;;;;;;;5.40;4.60;;;9.70;89.70;;;9.69;53.48;96022.69;4999987;28;20920;-56
2022/12/28 09:16:01;;;;;;;8.27;5.07;;;9.60;88.80;;;9.65;53.57;96022.09;5001072;28;20457;-57
2022/12/28 09:18:28;;;;;;;8.47;4.67;;;9.60;89.50;;;9.66;53.81;96022.91;5004846;28;20617;-57
2022/12/28 09:20:56;;;;;;;12.77;5.30;;;9.60;89.70;;;9.65;53.56;96019.47;5005802;28;20469;-55
2022/12/28 09:23:23;;;;;;;6.47;5.47;;;9.60;89.90;;;9.69;54.01;96022.69;4999471;28;20603;-58
2022/12/28 09:25:50;;;;;;;8.73;6.10;;;9.60;90.10;;;9.73;54.14;96013.69;5000476;28;20470;-55
2022/12/28 09:28:17;;;;;;;11.13;5.90;;;9.60;90.30;;;9.81;54.33;96021.03;4997257;28;20489;-55
2022/12/28 09:30:45;;;;;;;9.47;6.53;;;9.70;90.50;;;9.88;54.33;96014.38;5004834;28;20464;-58
2022/12/28 09:35:59;;;;;;;10.37;8.07;;;9.80;90.40;;;9.97;54.14;96003.22;5001549;28;20530;-58
2022/12/28 09:38:26;;;;;;;13.77;9.77;;;9.90;90.30;;;10.03;53.56;96000.16;5002005;28;20599;-58
2022/12/28 09:40:54;;;;;;;20.17;12.83;;;9.90;90.10;;;10.08;53.74;95993.75;5001020;28;20819;-54
2022/12/28 09:43:21;;;;;;;12.40;9.23;;;10.00;89.00;;;10.12;53.96;95988.16;5001315;28;20516;-56
2022/12/28 09:45:48;;;;;;;14.63;7.93;;;10.00;89.40;;;10.17;53.86;95990.47;4999687;28;20919;-57
2022/12/28 09:48:17;;;;;;;9.73;6.83;;;10.10;89.10;;;10.24;53.39;95981.19;5002298;28;20512;-56
2022/12/28 09:50:45;;;;;;;7.97;6.60;;;10.10;88.70;;;10.29;52.83;95988.75;5000630;28;20442;-57
2022/12/28 09:53:28;;;;;;;7.90;6.30;;;10.20;87.60;;;10.31;51.87;95979.78;4996826;28;20897;-54
2022/12/28 09:56:02;;;;;;;7.30;5.73;;;10.20;86.00;;;10.30;52.06;95983.38;5000213;28;20454;-57
2022/12/28 09:58:30;;;;;;;6.90;4.90;;;10.20;85.50;;;10.26;51.91;95978.47;4999992;28;20518;-55
2022/12/28 10:00:59;;;;;;;6.30;5.00;;;10.20;85.00;;;10.25;52.36;95968.88;4998639;28;20454;-56
2022/12/28 10:03:33;;;;;;;7.37;5.30;;;10.20;85.50;;;10.27;52.33;95970.47;5000413;28;20969;-57
2022/12/28 10:06:01;;;;;;;5.93;4.70;;;10.20;85.80;;;10.29;51.61;95959.84;4999215;28;20453;-55
2022/12/28 10:08:28;;;;;;;4.00;3.70;;;10.20;84.60;;;10.25;50.66;95961.81;5004184;28;20573;-57
2022/12/28 10:10:59;;;;;;;4.50;4.00;;;10.20;82.40;;;10.20;50.80;95961.31;5001795;28;20971;-56
2022/12/28 10:13:28;;;;;;;4.30;3.90;;;10.10;82.80;;;10.16;50.96;95958.09;5003536;28;20477;-58
2022/12/28 10:15:56;;;;;;;4.73;4.33;;;10.10;82.80;;;10.18;51.38;95961.44;5000361;28;20445;-54
2022/12/28 10:18:27;;;;;;;7.27;4.57;;;10.10;83.70;;;10.23;51.78;95955.84;5000761;28;20939;-56
2022/12/28 10:20:54;;;;;;;7.03;5.03;;;10.10;84.00;;;10.34;51.65;95953.31;4999867;28;20457;-55
2022/12/28 10:23:24;;;;;;;6.57;5.20;;;10.20;84.10;;;10.42;51.43;95951.91;4996412;28;20573;-55
2022/12/28 10:25:52;;;;;;;5.10;4.60;;;10.30;84.20;;;10.50;50.80;95952.19;5003789;28;20476;-58
2022/12/28 10:28:21;;;;;;;5.50;4.93;;;10.40;82.90;;;10.58;50.88;95941.94;4998899;28;20957;-58
2022/12/28 10:31:01;;;;;;;6.93;4.10;;;10.40;82.90;;;10.63;51.00;95952.97;5003354;28;20478;-58
2022/12/28 10:33:30;;;;;;;8.13;4.53;;;10.50;82.40;;;10.66;49.94;95950.13;4998311;28;20509;-57
2022/12/28 10:35:57;;;;;;;6.10;4.77;;;10.50;80.70;;;10.64;50.67;95951.16;5007810;28;20460;-55
2022/12/28 10:38:27;;;;;;;4.63;3.97;;;10.60;82.10;;;10.65;50.59;95945.78;5000185;28;20497;-55
2022/12/28 10:41:01;;;;;;;4.40;4.00;;;10.50;81.80;;;10.63;50.54;95947.72;5008013;28;20461;-55
2022/12/28 10:43:30;;;;;;;7.30;5.20;;;10.50;81.50;;;10.63;50.50;95947.72;5000849;28;20485;-57
2022/12/28 10:45:57;;;;;;;5.70;4.40;;;10.60;81.60;;;10.67;50.32;95945.69;5007522;28;20453;-58
2022/12/28 10:48:27;;;;;;;10.67;4.27;;;10.60;81.90;;;10.71;50.24;95947.97;5001499;28;20474;-58
2022/12/28 10:50:58;;;;;;;5.10;4.43;;;10.60;81.50;;;10.77;50.46;95949.31;5007149;28;20446;-57
2022/12/28 10:53:28;;;;;;;7.23;5.07;;;10.70;81.50;;;10.79;50.18;95954.47;5005220;28;20603;-56
2022/12/28 10:56:05;;;;;;;9.30;4.10;;;10.70;80.90;;;10.76;50.49;95955.53;4999613;28;20462;-57
2022/12/28 10:58:33;;;;;;;6.53;3.87;;;10.60;81.20;;;10.68;50.63;95956.09;5007533;28;21010;-55
2022/12/28 11:01:03;;;;;;;4.57;4.17;;;10.60;81.20;;;10.57;50.76;95954.25;5000276;28;20974;-55
2022/12/28 11:03:34;;;;;;;4.60;4.20;;;10.50;81.50;;;10.46;51.17;95953.38;4996293;28;20474;-54
2022/12/28 11:06:27;;;;;;;8.73;4.73;;;10.40;81.60;;;10.36;51.40;95953.19;5000832;28;20945;-57